createdAt,value
2018-03-15T00:00:54.252Z,92.11
2018-03-15T00:03:27.930Z,91.31
2018-03-15T00:05:55.536Z,91.24
2018-03-15T00:08:23.091Z,91.10
2018-03-15T00:10:50.689Z,90.91
2018-03-15T00:13:18.238Z,91.51
2018-03-15T00:15:45.831Z,92.18
2018-03-15T00:18:14.303Z,90.78
2018-03-15T00:20:41.911Z,91.19
2018-03-15T00:23:09.462Z,90.80
2018-03-15T00:25:37.958Z,91.88
2018-03-15T00:28:05.510Z,91.79
2018-03-15T00:30:33.066Z,91.56
2018-03-15T00:33:00.617Z,92.11
2018-03-15T00:35:28.175Z,92.43
2018-03-15T00:37:55.722Z,91.90
2018-03-15T00:40:23.270Z,91.73
2018-03-15T00:42:50.822Z,91.92
2018-03-15T00:45:18.379Z,91.16
2018-03-15T00:47:45.935Z,91.75
2018-03-15T00:50:13.488Z,91.60
2018-03-15T00:52:41.039Z,91.62
2018-03-15T00:55:08.589Z,90.62
2018-03-15T00:57:36.144Z,91.26
2018-03-15T01:00:03.699Z,91.35
2018-03-15T01:02:31.251Z,91.51
2018-03-15T01:04:58.799Z,91.66
2018-03-15T01:07:26.355Z,91.60
2018-03-15T01:09:53.904Z,92.09
2018-03-15T01:12:21.461Z,91.32
2018-03-15T01:14:49.903Z,91.60
2018-03-15T01:17:17.455Z,91.91
2018-03-15T01:19:45.003Z,91.52
2018-03-15T01:22:12.590Z,91.57
2018-03-15T01:24:40.143Z,91.27
2018-03-15T01:27:07.734Z,92.49
2018-03-15T01:29:35.294Z,92.27
2018-03-15T01:32:02.850Z,92.70
2018-03-15T01:34:30.393Z,92.66
2018-03-15T01:36:57.942Z,92.88
2018-03-15T01:39:25.530Z,92.49
2018-03-15T01:41:53.136Z,92.41
2018-03-15T01:44:20.686Z,92.17
2018-03-15T01:46:48.246Z,92.61
2018-03-15T01:49:17.734Z,93.01
2018-03-15T02:00:18.228Z,93.13
2018-03-15T02:02:55.764Z,92.81
2018-03-15T02:05:23.355Z,93.22
2018-03-15T02:07:50.946Z,92.96
2018-03-15T02:10:18.498Z,92.77
2018-03-15T02:12:46.963Z,93.04
2018-03-15T02:15:15.238Z,93.07
2018-03-15T02:17:42.840Z,93.36
2018-03-15T02:20:11.369Z,93.85
2018-03-15T02:22:39.735Z,93.11
2018-03-15T02:25:07.287Z,93.10
2018-03-15T02:27:34.842Z,93.22
2018-03-15T02:30:03.231Z,92.40
2018-03-15T02:32:31.608Z,92.64
2018-03-15T02:34:59.200Z,92.38
2018-03-15T02:37:27.699Z,92.69
2018-03-15T02:39:55.253Z,92.74
2018-03-15T02:42:22.807Z,93.30
2018-03-15T02:44:50.394Z,93.13
2018-03-15T02:47:17.942Z,92.97
2018-03-15T02:49:45.558Z,93.21
2018-03-15T02:52:13.157Z,92.74
2018-03-15T02:54:41.635Z,92.86
2018-03-15T02:57:09.186Z,93.09
2018-03-15T02:59:36.741Z,93.19
2018-03-15T03:02:04.299Z,93.25
2018-03-15T03:04:31.893Z,92.88
2018-03-15T03:06:59.498Z,92.77
2018-03-15T03:09:27.054Z,92.40
2018-03-15T03:11:54.614Z,92.56
2018-03-15T03:14:23.137Z,92.44
2018-03-15T03:16:50.691Z,93.19
2018-03-15T03:19:18.239Z,92.58
2018-03-15T03:21:45.792Z,93.02
2018-03-15T03:24:13.341Z,93.64
2018-03-15T03:26:40.886Z,92.97
2018-03-15T03:29:08.444Z,93.48
2018-03-15T03:31:35.995Z,93.28
2018-03-15T03:34:03.606Z,93.81
2018-03-15T03:36:31.155Z,93.04
2018-03-15T03:38:58.705Z,93.37
2018-03-15T03:41:26.289Z,93.13
2018-03-15T03:43:53.830Z,92.96
2018-03-15T03:46:21.391Z,92.77
2018-03-15T03:48:48.947Z,93.42
2018-03-15T03:51:17.434Z,93.89
2018-03-15T03:53:44.991Z,92.90
2018-03-15T03:56:12.613Z,93.14
2018-03-15T03:58:40.166Z,92.86
2018-03-15T04:01:07.720Z,92.63
2018-03-15T04:03:35.274Z,92.90
2018-03-15T04:06:02.830Z,93.12
2018-03-15T04:08:30.378Z,92.85
2018-03-15T04:10:58.826Z,92.80
2018-03-15T04:13:26.396Z,92.92
2018-03-15T04:15:53.987Z,93.12
2018-03-15T04:18:22.384Z,93.27
2018-03-15T04:20:49.975Z,93.24
2018-03-15T04:23:18.302Z,93.32
2018-03-15T04:25:45.897Z,93.48
2018-03-15T04:28:13.479Z,93.71
2018-03-15T04:30:41.070Z,93.77
2018-03-15T04:33:09.521Z,93.53
2018-03-15T04:35:37.075Z,93.56
2018-03-15T04:38:04.624Z,93.22
2018-03-15T04:40:32.212Z,93.31
2018-03-15T04:42:59.767Z,93.36
2018-03-15T04:45:27.325Z,93.41
2018-03-15T04:47:54.874Z,93.30
2018-03-15T04:50:22.454Z,93.46
2018-03-15T04:52:50.051Z,93.11
2018-03-15T04:55:18.509Z,93.46
2018-03-15T04:57:46.065Z,93.54
2018-03-15T05:00:14.522Z,93.39
2018-03-15T05:02:42.115Z,92.96
2018-03-15T05:05:10.611Z,93.25
2018-03-15T05:07:38.162Z,93.55
2018-03-15T05:10:06.622Z,93.28
2018-03-15T05:12:34.188Z,93.18
2018-03-15T05:15:02.463Z,93.32
2018-03-15T05:17:30.810Z,92.64
2018-03-15T05:19:59.106Z,92.42
2018-03-15T05:22:27.492Z,92.65
2018-03-15T05:24:55.869Z,92.39
2018-03-15T05:27:23.418Z,92.73
2018-03-15T05:29:51.919Z,92.68
2018-03-15T05:32:20.268Z,92.68
2018-03-15T05:34:48.610Z,92.40
2018-03-15T05:37:16.962Z,92.72
2018-03-15T05:39:45.296Z,92.87
2018-03-15T05:42:13.660Z,92.57
2018-03-15T05:44:41.215Z,92.59
2018-03-15T05:47:08.799Z,92.26
2018-03-15T05:49:37.177Z,92.09
2018-03-15T05:52:05.543Z,92.54
2018-03-15T05:54:33.096Z,92.47
2018-03-15T05:57:00.687Z,91.93
2018-03-15T05:59:28.284Z,92.32
2018-03-15T06:01:56.639Z,91.97
2018-03-15T06:04:24.226Z,91.98
2018-03-15T06:06:51.818Z,91.47
2018-03-15T06:09:19.371Z,91.85
2018-03-15T06:11:46.965Z,91.91
2018-03-15T06:14:14.554Z,92.45
2018-03-15T06:16:42.145Z,92.13
2018-03-15T06:19:09.702Z,92.53
2018-03-15T06:21:37.283Z,92.18
2018-03-15T06:24:05.785Z,93.02
2018-03-15T06:26:33.369Z,92.71
2018-03-15T06:29:00.922Z,92.09
2018-03-15T06:31:28.612Z,92.21
2018-03-15T06:33:56.946Z,92.12
2018-03-15T06:36:25.333Z,91.60
2018-03-15T06:38:53.624Z,91.98
2018-03-15T06:41:21.920Z,92.31
2018-03-15T06:43:49.517Z,91.55
2018-03-15T06:46:17.073Z,91.71
2018-03-15T06:48:44.623Z,91.91
2018-03-15T06:51:12.871Z,92.48
2018-03-15T06:53:40.438Z,92.79
2018-03-15T06:56:07.991Z,92.12
2018-03-15T06:58:35.543Z,92.24
2018-03-15T07:01:03.101Z,91.93
2018-03-15T07:03:30.655Z,91.64
2018-03-15T07:05:58.211Z,91.59
2018-03-15T07:08:26.693Z,91.31
2018-03-15T07:10:54.246Z,91.24
2018-03-15T07:13:21.800Z,91.09
2018-03-15T07:15:49.350Z,91.41
2018-03-15T07:18:18.086Z,91.04
2018-03-15T07:20:45.640Z,90.65
2018-03-15T07:23:13.188Z,90.11
2018-03-15T07:25:41.767Z,90.48
2018-03-15T07:28:09.329Z,90.33
2018-03-15T07:30:36.938Z,91.13
2018-03-15T07:33:04.501Z,90.89
2018-03-15T07:35:32.864Z,91.30
2018-03-15T07:38:01.209Z,90.75
2018-03-15T07:40:29.682Z,90.75
2018-03-15T07:42:57.240Z,90.86
2018-03-15T07:45:24.787Z,90.72
2018-03-15T07:47:52.335Z,90.46
2018-03-15T07:50:19.890Z,90.05
2018-03-15T07:52:47.445Z,89.70
2018-03-15T07:55:14.999Z,90.42
2018-03-15T07:57:42.554Z,90.84
2018-03-15T08:00:10.102Z,90.88
2018-03-15T08:02:38.563Z,90.35
2018-03-15T08:05:06.116Z,90.02
2018-03-15T08:07:33.674Z,90.02
2018-03-15T08:10:01.271Z,89.72
2018-03-15T08:12:28.816Z,90.12
2018-03-15T08:14:56.367Z,89.79
2018-03-15T08:17:23.918Z,89.35
2018-03-15T08:19:51.480Z,87.72
2018-03-15T08:22:19.043Z,87.54
2018-03-15T08:24:47.421Z,88.40
2018-03-15T08:27:15.012Z,87.75
2018-03-15T08:29:43.390Z,89.26
2018-03-15T08:32:10.976Z,87.49
2018-03-15T08:34:39.227Z,87.00
2018-03-15T08:37:06.776Z,87.08
2018-03-15T08:39:34.352Z,87.03
2018-03-15T08:42:01.913Z,87.34
2018-03-15T08:44:30.259Z,87.81
2018-03-15T08:46:58.620Z,87.83
2018-03-15T08:49:26.180Z,86.90
2018-03-15T08:51:54.631Z,87.68
2018-03-15T08:54:22.978Z,86.19
2018-03-15T08:56:50.596Z,84.83
2018-03-15T08:59:18.977Z,85.63
2018-03-15T09:01:47.303Z,84.32
2018-03-15T09:04:15.587Z,84.51
2018-03-15T09:06:43.136Z,83.89
2018-03-15T09:09:11.550Z,84.68
2018-03-15T09:11:39.168Z,84.84
2018-03-15T09:14:06.720Z,84.89
2018-03-15T09:16:35.064Z,83.99
2018-03-15T09:19:02.615Z,83.54
2018-03-15T09:21:30.198Z,82.92
2018-03-15T09:23:57.741Z,84.75
2018-03-15T09:26:26.215Z,84.68
2018-03-15T09:28:53.803Z,84.17
2018-03-15T09:31:21.358Z,83.41
2018-03-15T09:33:48.946Z,84.59
2018-03-15T09:36:16.564Z,82.60
2018-03-15T09:38:44.130Z,83.30
2018-03-15T09:41:11.711Z,83.07
2018-03-15T09:43:39.293Z,83.03
2018-03-15T09:46:06.971Z,82.69
2018-03-15T09:48:34.488Z,81.29
2018-03-15T09:51:02.050Z,81.60
2018-03-15T09:53:29.667Z,81.17
2018-03-15T09:55:57.239Z,81.72
2018-03-15T09:58:24.803Z,81.16
2018-03-15T10:00:52.365Z,79.90
2018-03-15T10:03:20.907Z,81.91
2018-03-15T10:05:48.478Z,78.83
2018-03-15T10:08:16.051Z,78.42
2018-03-15T10:10:43.622Z,79.03
2018-03-15T10:13:12.146Z,78.80
2018-03-15T10:15:39.728Z,78.51
2018-03-15T10:18:07.304Z,79.73
2018-03-15T10:20:34.982Z,79.72
2018-03-15T10:23:02.555Z,79.25
2018-03-15T10:25:30.179Z,79.88
2018-03-15T10:27:57.738Z,79.11
2018-03-15T10:30:25.319Z,80.12
2018-03-15T10:32:58.631Z,79.08
2018-03-15T10:35:29.069Z,79.78
2018-03-15T10:37:56.643Z,78.53
2018-03-15T10:40:25.120Z,79.35
2018-03-15T10:42:52.683Z,78.22
2018-03-15T10:45:20.270Z,77.48
2018-03-15T10:47:47.849Z,76.38
2018-03-15T10:50:16.224Z,77.45
2018-03-15T10:52:43.796Z,79.86
2018-03-15T10:55:11.475Z,77.56
2018-03-15T10:57:39.049Z,76.55
2018-03-15T11:00:07.418Z,75.56
2018-03-15T11:02:40.639Z,76.41
2018-03-15T11:05:13.915Z,78.71
2018-03-15T11:07:41.491Z,77.76
2018-03-15T11:10:09.058Z,77.72
2018-03-15T11:12:36.623Z,78.33
2018-03-15T11:15:04.191Z,77.22
2018-03-15T11:17:31.798Z,78.10
2018-03-15T11:19:59.378Z,78.42
2018-03-15T11:22:26.965Z,78.09
2018-03-15T11:24:54.546Z,76.67
2018-03-15T11:27:22.157Z,77.76
2018-03-15T11:29:49.730Z,76.26
2018-03-15T11:32:17.304Z,75.50
2018-03-15T11:34:44.880Z,76.54
2018-03-15T11:37:12.452Z,77.20
2018-03-15T11:39:40.346Z,74.95
2018-03-15T11:42:07.914Z,74.70
2018-03-15T11:44:35.499Z,76.13
2018-03-15T11:47:03.071Z,75.93
2018-03-15T11:49:30.651Z,74.12
2018-03-15T11:51:58.223Z,75.60
2018-03-15T11:54:25.798Z,76.01
2018-03-15T11:56:53.370Z,74.93
2018-03-15T11:59:20.975Z,75.55
2018-03-15T12:01:48.569Z,75.39
2018-03-15T12:04:16.134Z,76.55
2018-03-15T12:06:43.716Z,74.54
2018-03-15T12:09:11.279Z,75.18
2018-03-15T12:11:38.856Z,75.45
2018-03-15T12:14:06.422Z,75.35
2018-03-15T12:16:34.044Z,74.75
2018-03-15T12:19:01.595Z,71.42
2018-03-15T12:21:29.154Z,73.98
2018-03-15T12:23:56.746Z,74.00
2018-03-15T12:26:24.302Z,74.69
2018-03-15T12:28:51.850Z,75.06
2018-03-15T12:31:19.505Z,74.21
2018-03-15T12:33:47.067Z,73.93
2018-03-15T12:36:14.619Z,75.15
2018-03-15T12:38:42.172Z,75.97
2018-03-15T12:41:09.726Z,73.45
2018-03-15T12:43:37.315Z,74.22
2018-03-15T12:46:04.867Z,75.01
2018-03-15T12:48:32.420Z,74.52
2018-03-15T12:50:59.977Z,74.37
2018-03-15T12:53:27.705Z,72.57
2018-03-15T12:55:55.284Z,75.06
2018-03-15T12:58:23.785Z,74.92
2018-03-15T13:00:52.039Z,75.35
2018-03-15T13:03:20.287Z,75.94
2018-03-15T13:05:47.886Z,75.79
2018-03-15T13:08:16.342Z,76.75
2018-03-15T13:10:43.900Z,76.72
2018-03-15T13:13:12.731Z,76.31
2018-03-15T13:15:40.323Z,75.88
2018-03-15T13:18:08.774Z,75.99
2018-03-15T13:20:37.109Z,76.42
2018-03-15T13:23:04.692Z,75.53
2018-03-15T13:25:33.027Z,75.96
2018-03-15T13:28:00.584Z,75.76
2018-03-15T13:30:29.038Z,76.01
2018-03-15T13:32:56.594Z,75.23
2018-03-15T13:35:24.155Z,75.57
2018-03-15T13:37:52.610Z,74.55
2018-03-15T13:40:20.198Z,73.37
2018-03-15T13:42:47.750Z,73.81
2018-03-15T13:45:15.347Z,73.44
2018-03-15T13:47:42.895Z,73.59
2018-03-15T13:50:10.443Z,74.22
2018-03-15T13:52:37.997Z,72.50
2018-03-15T13:55:05.543Z,73.91
2018-03-15T13:57:33.133Z,74.77
2018-03-15T14:00:00.687Z,74.81
2018-03-15T14:02:28.230Z,74.68
2018-03-15T14:04:55.785Z,75.10
2018-03-15T14:07:24.163Z,75.28
2018-03-15T14:09:51.709Z,76.25
2018-03-15T14:12:20.234Z,75.35
2018-03-15T14:14:48.579Z,74.86
2018-03-15T14:17:16.996Z,75.32
2018-03-15T14:19:44.560Z,73.36
2018-03-15T14:22:12.111Z,73.62
2018-03-15T14:24:39.659Z,74.62
2018-03-15T14:27:07.215Z,72.58
2018-03-15T14:29:34.839Z,74.14
2018-03-15T14:32:02.373Z,72.26
2018-03-15T14:34:29.925Z,72.46
2018-03-15T14:36:57.475Z,70.22
2018-03-15T14:39:25.028Z,72.14
2018-03-15T14:41:52.611Z,70.36
2018-03-15T14:44:20.201Z,70.55
2018-03-15T14:46:48.534Z,71.44
2018-03-15T14:49:16.083Z,70.39
2018-03-15T14:51:43.627Z,71.90
2018-03-15T14:54:11.179Z,71.40
2018-03-15T14:56:38.725Z,70.90
2018-03-15T14:59:06.276Z,72.56
2018-03-15T15:04:07.626Z,73.01
2018-03-15T15:06:35.188Z,72.44
2018-03-15T15:09:02.737Z,72.02
2018-03-15T15:11:31.211Z,72.68
2018-03-15T15:13:58.775Z,71.70
2018-03-15T15:16:27.115Z,70.12
2018-03-15T15:18:54.668Z,69.90
2018-03-15T15:21:22.223Z,72.28
2018-03-15T15:23:50.432Z,71.22
2018-03-15T15:26:17.978Z,72.71
2018-03-15T15:28:45.531Z,73.86
2018-03-15T15:31:13.126Z,72.89
2018-03-15T15:36:07.515Z,73.66
2018-03-15T15:38:35.059Z,73.58
2018-03-15T15:41:03.315Z,73.78
2018-03-15T15:43:30.867Z,73.73
2018-03-15T15:45:58.419Z,74.43
2018-03-15T15:48:25.979Z,72.83
2018-03-15T15:50:53.569Z,74.20
2018-03-15T15:53:21.124Z,74.92
2018-03-15T15:55:48.675Z,74.36
2018-03-15T15:58:16.925Z,75.63
2018-03-15T16:00:44.491Z,74.40
2018-03-15T16:03:12.083Z,76.71
2018-03-15T16:05:39.641Z,75.30
2018-03-15T16:08:07.938Z,76.32
2018-03-15T16:10:35.496Z,76.75
2018-03-15T16:13:03.055Z,77.05
2018-03-15T16:15:30.642Z,76.92
2018-03-15T16:17:58.196Z,76.26
2018-03-15T16:20:25.757Z,77.06
2018-03-15T16:22:53.306Z,76.60
2018-03-15T16:25:20.861Z,75.68
2018-03-15T16:27:48.415Z,76.15
2018-03-15T16:30:16.737Z,76.20
2018-03-15T16:32:44.287Z,76.65
2018-03-15T16:35:12.628Z,77.49
2018-03-15T16:37:40.967Z,77.60
2018-03-15T16:40:09.391Z,77.32
2018-03-15T16:42:37.892Z,77.19
2018-03-15T16:45:06.215Z,76.94
2018-03-15T16:47:34.567Z,77.88
2018-03-15T16:50:02.913Z,78.03
2018-03-15T16:52:31.255Z,78.11
2018-03-15T16:54:58.823Z,77.93
2018-03-15T16:57:26.369Z,77.24
2018-03-15T16:59:54.717Z,78.31
2018-03-15T17:02:23.140Z,78.47
2018-03-15T17:04:50.696Z,77.89
2018-03-15T17:07:19.168Z,78.18
2018-03-15T17:09:46.721Z,77.62
2018-03-15T17:12:15.051Z,77.59
2018-03-15T17:14:42.599Z,77.50
2018-03-15T17:17:10.151Z,77.39
2018-03-15T17:19:38.608Z,78.78
2018-03-15T17:22:06.152Z,77.53
2018-03-15T17:24:33.742Z,77.79
2018-03-15T17:27:01.295Z,77.83
2018-03-15T17:29:28.883Z,78.58
2018-03-15T17:31:56.506Z,78.69
2018-03-15T17:34:25.007Z,78.39
2018-03-15T17:36:52.589Z,78.23
2018-03-15T17:39:21.084Z,78.92
2018-03-15T17:41:48.694Z,79.23
2018-03-15T17:44:17.091Z,79.01
2018-03-15T17:46:44.710Z,78.34
2018-03-15T17:49:12.292Z,78.82
2018-03-15T17:51:40.774Z,79.13
2018-03-15T17:54:08.395Z,79.04
2018-03-15T17:56:35.974Z,78.46
2018-03-15T17:59:03.595Z,78.56
2018-03-15T18:01:31.187Z,79.50
2018-03-15T18:03:59.667Z,79.76
2018-03-15T18:06:27.243Z,79.11
2018-03-15T18:08:55.729Z,79.13
2018-03-15T18:11:23.306Z,79.57
2018-03-15T18:13:50.923Z,79.48
2018-03-15T18:16:18.504Z,78.21
2018-03-15T18:18:46.083Z,79.44
2018-03-15T18:21:13.727Z,79.31
2018-03-15T18:23:41.280Z,79.77
2018-03-15T18:26:08.859Z,79.14
2018-03-15T18:28:36.445Z,80.49
2018-03-15T18:31:04.129Z,80.00
2018-03-15T18:33:31.710Z,80.16
2018-03-15T18:35:59.294Z,79.71
2018-03-15T18:38:26.874Z,80.05
2018-03-15T18:40:54.455Z,79.87
2018-03-15T18:43:22.030Z,80.85
2018-03-15T18:45:49.614Z,80.17
2018-03-15T18:48:17.213Z,80.13
2018-03-15T18:50:44.799Z,80.27
2018-03-15T18:53:12.380Z,79.59
2018-03-15T18:55:40.746Z,80.12
2018-03-15T18:58:09.096Z,80.68
2018-03-15T19:00:36.676Z,80.73
2018-03-15T19:03:04.255Z,79.99
2018-03-15T19:05:32.821Z,80.22
2018-03-15T19:08:00.403Z,80.24
2018-03-15T19:10:28.756Z,79.92
2018-03-15T19:12:56.315Z,79.47
2018-03-15T19:15:24.727Z,79.99
2018-03-15T19:17:53.070Z,81.16
2018-03-15T19:20:20.651Z,81.28
2018-03-15T19:22:48.287Z,81.15
2018-03-15T19:25:16.648Z,81.08
2018-03-15T19:27:44.225Z,80.49
2018-03-15T19:30:11.808Z,81.90
2018-03-15T19:32:39.408Z,81.12
2018-03-15T19:35:07.851Z,80.67
2018-03-15T19:37:35.436Z,80.79
2018-03-15T19:40:03.072Z,81.20
2018-03-15T19:42:30.699Z,81.42
2018-03-15T19:44:59.011Z,81.38
2018-03-15T19:47:27.373Z,81.23
2018-03-15T19:49:55.863Z,81.99
2018-03-15T19:52:23.442Z,81.90
2018-03-15T19:54:51.022Z,82.30
2018-03-15T19:57:18.641Z,81.63
2018-03-15T19:59:46.223Z,81.08
2018-03-15T20:02:13.804Z,81.57
2018-03-15T20:04:41.447Z,81.36
2018-03-15T20:07:09.993Z,81.46
2018-03-15T20:09:38.253Z,81.53
2018-03-15T20:12:06.627Z,82.27
2018-03-15T20:14:34.991Z,82.42
2018-03-15T20:17:02.571Z,81.91
2018-03-15T20:19:30.963Z,81.34
2018-03-15T20:21:58.545Z,82.21
2018-03-15T20:24:31.618Z,82.17
2018-03-15T20:27:00.029Z,82.19
2018-03-15T20:29:28.407Z,81.92
2018-03-15T20:31:55.993Z,81.66
2018-03-15T20:34:24.781Z,81.43
2018-03-15T20:36:52.742Z,82.48
2018-03-15T20:39:26.635Z,81.54
2018-03-15T20:41:55.046Z,81.93
2018-03-15T20:44:22.659Z,82.17
2018-03-15T20:46:56.730Z,82.41
2018-03-15T20:49:25.082Z,82.40
2018-03-15T20:51:53.398Z,82.45
2018-03-15T20:54:21.520Z,82.15
2018-03-15T20:56:49.099Z,82.03
2018-03-15T20:59:16.750Z,82.40
2018-03-15T21:01:44.341Z,82.91
2018-03-15T21:04:12.707Z,82.28
2018-03-15T21:06:41.075Z,82.54
2018-03-15T21:09:09.430Z,83.39
2018-03-15T21:11:37.007Z,83.17
2018-03-15T21:14:04.591Z,81.95
2018-03-15T21:16:32.999Z,83.00
2018-03-15T21:19:01.380Z,83.19
2018-03-15T21:21:28.960Z,83.36
2018-03-15T21:23:56.566Z,83.38
2018-03-15T21:26:24.156Z,83.51
2018-03-15T21:28:51.732Z,83.45
2018-03-15T21:31:19.317Z,82.97
2018-03-15T21:33:46.894Z,83.24
2018-03-15T21:36:14.551Z,83.01
2018-03-15T21:38:42.120Z,83.17
2018-03-15T21:41:09.703Z,83.15
2018-03-15T21:43:37.323Z,82.71
2018-03-15T21:46:04.935Z,83.24
2018-03-15T21:48:32.516Z,83.15
2018-03-15T21:51:00.099Z,84.29
2018-03-15T21:53:27.720Z,83.61
2018-03-15T21:55:55.308Z,83.67
2018-03-15T21:58:22.928Z,83.69
2018-03-15T22:00:50.509Z,83.33
2018-03-15T22:03:18.082Z,83.98
2018-03-15T22:05:46.553Z,84.44
2018-03-15T22:08:14.171Z,83.84
2018-03-15T22:10:41.747Z,83.59
2018-03-15T22:13:09.322Z,84.32
2018-03-15T22:15:36.899Z,84.36
2018-03-15T22:18:04.534Z,83.89
2018-03-15T22:20:32.155Z,84.06
2018-03-15T22:22:59.734Z,84.21
2018-03-15T22:25:27.348Z,83.75
2018-03-15T22:27:54.932Z,84.05
2018-03-15T22:30:22.558Z,83.31
2018-03-15T22:32:50.139Z,83.96
2018-03-15T22:35:17.719Z,84.12
2018-03-15T22:37:45.325Z,83.55
2018-03-15T22:40:12.914Z,83.83
2018-03-15T22:42:40.503Z,84.60
2018-03-15T22:45:08.082Z,84.28
2018-03-15T22:47:35.658Z,84.46
2018-03-15T22:50:03.236Z,84.32
2018-03-15T22:52:30.821Z,84.88
2018-03-15T22:54:58.398Z,84.02
2018-03-15T22:57:26.022Z,84.60
2018-03-15T22:59:53.599Z,84.73
2018-03-15T23:02:21.180Z,84.09
2018-03-15T23:04:48.761Z,84.44
2018-03-15T23:07:16.347Z,83.86
2018-03-15T23:09:43.926Z,84.35
2018-03-15T23:12:11.519Z,84.50
2018-03-15T23:14:39.930Z,84.60
2018-03-15T23:17:07.507Z,84.24
2018-03-15T23:19:35.871Z,84.99
2018-03-15T23:22:03.446Z,84.76
2018-03-15T23:24:31.027Z,84.85
2018-03-15T23:26:58.648Z,84.64
2018-03-15T23:29:26.226Z,85.03
2018-03-15T23:31:53.806Z,85.27
2018-03-15T23:34:21.381Z,84.76
2018-03-15T23:36:48.964Z,84.29
2018-03-15T23:39:16.586Z,85.12
2018-03-15T23:41:44.163Z,84.60
2018-03-15T23:44:11.747Z,84.41
2018-03-15T23:46:39.328Z,84.62
2018-03-15T23:49:06.912Z,85.00
2018-03-15T23:51:34.495Z,84.77
2018-03-15T23:54:02.076Z,85.15
2018-03-15T23:56:29.659Z,85.19
2018-03-15T23:58:57.234Z,84.72
